Terminal Aerodrome Forecast
Issued by NWS Brownsville, TX

Home | Current Version | Previous Version | Text Only | Print | Product List | Glossary On
Versions: 1 2 3 4 5 6 7 8 9 10 11 12 13 14
978
FTUS44 KBRO 132322
TAFBRO
TAF
KBRO 132322Z 1400/1424 15005KT P6SM SCT250
     FM140600 19005KT P6SM SCT050 BKN250
     FM141500 20009KT P6SM BKN050 OVC100
     FM141800 17012KT P6SM OVC050=

USA.gov is the U.S. government's official web portal to all federal, state and local government web resources and services.